Time;durP1;ratioP1;P1;durP2;ratioP2;P2;SDS_P1;SDS_P2;PMS_P1;PMS_P2;Temp;Humidity;BMP_temperature;BMP_pressure;BME280_temperature;BME280_humidity;BME280_pressure;Samples;Min_cycle;Max_cycle;Signal;HPM_P1;HPM_P2
2023/07/01 00:01:38;;;;;;;84.55;53.67;;;20.50;72.60;;;;;;4981795;28;90178;-82
2023/07/01 00:04:04;;;;;;;84.70;53.63;;;20.50;72.60;;;;;;4964646;28;92777;-82
2023/07/01 00:06:30;;;;;;;85.35;53.60;;;20.50;72.60;;;;;;4964376;28;93991;-81
2023/07/01 00:08:55;;;;;;;86.25;53.83;;;20.40;72.60;;;;;;4966706;28;89370;-81
2023/07/01 00:11:21;;;;;;;86.55;53.65;;;20.40;73.20;;;;;;4975102;28;90853;-81
2023/07/01 00:13:47;;;;;;;84.82;53.50;;;20.40;73.00;;;;;;4978352;28;94180;-82
2023/07/01 00:16:13;;;;;;;84.72;53.53;;;20.40;72.90;;;;;;4987844;28;90740;-82
2023/07/01 00:18:40;;;;;;;84.95;53.45;;;20.40;72.90;;;;;;4981205;28;91217;-81
2023/07/01 00:21:06;;;;;;;84.43;53.58;;;20.40;73.10;;;;;;4985916;28;89556;-81
2023/07/01 00:23:32;;;;;;;84.38;53.65;;;20.40;72.70;;;;;;4963975;28;95453;-83
2023/07/01 00:25:58;;;;;;;84.32;53.53;;;20.40;73.30;;;;;;4980933;28;90944;-82
2023/07/01 00:28:24;;;;;;;84.47;53.42;;;20.40;73.10;;;;;;4985229;28;89834;-82
2023/07/01 00:30:49;;;;;;;85.10;53.58;;;20.40;73.30;;;;;;4983282;28;88989;-82
2023/07/01 00:33:15;;;;;;;84.88;53.78;;;20.30;73.00;;;;;;4961768;28;93076;-83
2023/07/01 00:35:40;;;;;;;85.25;53.65;;;20.30;73.30;;;;;;4965143;28;95046;-82
2023/07/01 00:38:06;;;;;;;85.15;53.42;;;20.30;73.60;;;;;;4964181;28;91042;-81
2023/07/01 00:40:31;;;;;;;85.13;53.47;;;20.30;73.60;;;;;;4956745;28;93972;-82
2023/07/01 00:42:57;;;;;;;84.18;53.17;;;20.30;73.20;;;;;;4983313;28;90933;-81
2023/07/01 00:45:23;;;;;;;85.45;53.53;;;20.30;73.60;;;;;;4978202;28;92600;-84
2023/07/01 00:47:49;;;;;;;85.63;54.10;;;20.30;73.30;;;;;;4986514;28;89309;-82
2023/07/01 00:50:15;;;;;;;84.88;53.63;;;20.30;74.10;;;;;;4979948;28;89495;-84
2023/07/01 00:52:42;;;;;;;84.38;53.25;;;20.20;73.70;;;;;;4985424;28;90324;-83
2023/07/01 00:55:09;;;;;;;85.85;53.65;;;20.20;73.40;;;;;;4983239;28;90222;-83
2023/07/01 00:57:35;;;;;;;83.72;53.30;;;20.20;74.30;;;;;;4968155;28;90334;-82
2023/07/01 01:00:10;;;;;;;84.75;53.38;;;20.20;73.50;;;;;;4985964;28;89510;-82
2023/07/01 01:03:04;;;;;;;84.97;53.72;;;20.20;74.10;;;;;;4980207;28;90926;-82
2023/07/01 01:05:39;;;;;;;84.50;53.45;;;20.20;73.80;;;;;;4980769;28;91184;-82
2023/07/01 01:08:11;;;;;;;83.40;53.10;;;20.20;74.30;;;;;;4985589;28;89525;-84
2023/07/01 01:10:41;;;;;;;84.20;53.30;;;20.10;74.00;;;;;;4965003;28;89736;-82
2023/07/01 01:13:07;;;;;;;83.68;53.38;;;20.10;73.80;;;;;;4984441;28;90070;-82
2023/07/01 01:15:33;;;;;;;84.65;53.30;;;20.10;74.10;;;;;;4966692;28;93421;-82
2023/07/01 01:18:05;;;;;;;84.20;53.22;;;20.10;74.50;;;;;;4985744;28;89426;-82
2023/07/01 01:20:33;;;;;;;84.43;53.17;;;20.10;74.50;;;;;;4985412;28;88876;-81
2023/07/01 01:23:14;;;;;;;86.43;53.58;;;20.10;74.30;;;;;;4968289;28;93410;-82
2023/07/01 01:26:26;;;;;;;84.00;53.55;;;20.00;75.00;;;;;;4986007;28;90981;-81
2023/07/01 01:28:52;;;;;;;84.90;53.40;;;20.00;74.90;;;;;;4955087;28;90953;-82
2023/07/01 01:31:19;;;;;;;83.90;53.20;;;20.00;75.10;;;;;;4981686;28;93799;-82
2023/07/01 01:33:46;;;;;;;83.72;52.95;;;20.00;74.50;;;;;;4985470;28;90518;-82
2023/07/01 01:36:34;;;;;;;84.40;53.13;;;20.00;74.40;;;;;;4970425;28;92149;-82
2023/07/01 01:39:05;;;;;;;84.53;52.97;;;20.00;74.30;;;;;;4974834;28;89870;-81
2023/07/01 01:41:50;;;;;;;84.25;53.05;;;20.00;74.80;;;;;;4968266;28;89337;-81
2023/07/01 01:44:25;;;;;;;83.65;53.10;;;19.90;75.20;;;;;;4987928;28;90651;-82
2023/07/01 01:46:51;;;;;;;83.82;53.10;;;20.00;75.40;;;;;;4984729;28;90558;-82
2023/07/01 01:49:17;;;;;;;84.32;53.22;;;20.00;75.80;;;;;;4965354;28;89701;-84
2023/07/01 01:51:43;;;;;;;83.47;53.25;;;19.90;74.80;;;;;;4967490;28;89983;-82
2023/07/01 01:54:10;;;;;;;83.40;53.25;;;20.00;75.50;;;;;;4990089;28;91345;-82
2023/07/01 01:56:37;;;;;;;85.22;53.22;;;20.00;75.50;;;;;;4981702;28;90793;-83
2023/07/01 01:59:03;;;;;;;84.32;53.28;;;19.90;75.20;;;;;;4980797;28;89575;-82
2023/07/01 02:01:28;;;;;;;82.93;53.00;;;19.90;75.90;;;;;;4965557;28;91026;-82
2023/07/01 02:03:54;;;;;;;83.97;53.17;;;19.90;75.00;;;;;;4970537;28;93002;-82
2023/07/01 02:06:20;;;;;;;83.57;53.08;;;19.90;76.10;;;;;;4970484;28;92454;-82
2023/07/01 02:08:46;;;;;;;83.72;53.30;;;19.90;75.20;;;;;;4972787;28;89954;-82
2023/07/01 02:11:11;;;;;;;84.15;53.38;;;19.90;74.90;;;;;;4989001;28;89740;-83
2023/07/01 02:13:37;;;;;;;83.72;53.22;;;19.90;76.10;;;;;;4979728;28;93795;-82
2023/07/01 02:16:03;;;;;;;84.38;53.05;;;19.90;76.30;;;;;;4968170;28;92358;-82
2023/07/01 02:18:28;;;;;;;84.43;53.45;;;19.90;75.90;;;;;;4967503;28;91201;-82
2023/07/01 02:20:54;;;;;;;84.28;53.28;;;19.90;76.20;;;;;;4984692;28;90019;-81
2023/07/01 02:23:19;;;;;;;84.50;53.30;;;19.90;76.70;;;;;;4984269;28;90009;-81
2023/07/01 02:25:45;;;;;;;83.65;53.10;;;19.80;75.50;;;;;;4969302;28;93108;-82
2023/07/01 02:28:11;;;;;;;83.30;52.85;;;19.90;75.60;;;;;;4979317;28;90326;-84
2023/07/01 02:30:37;;;;;;;83.65;53.28;;;19.80;75.50;;;;;;4982156;28;90811;-83
2023/07/01 02:33:02;;;;;;;83.90;53.08;;;19.80;76.20;;;;;;4987171;28;90673;-82
2023/07/01 02:35:29;;;;;;;84.28;53.45;;;19.80;75.70;;;;;;4984868;28;90097;-83
2023/07/01 02:37:54;;;;;;;83.55;52.92;;;19.80;76.80;;;;;;4965608;28;90271;-83
2023/07/01 02:40:20;;;;;;;83.35;52.60;;;19.80;76.00;;;;;;4988539;28;89498;-82
2023/07/01 02:42:46;;;;;;;83.93;53.15;;;19.80;76.40;;;;;;4975199;28;93739;-81
2023/07/01 02:45:11;;;;;;;82.93;52.65;;;19.80;75.50;;;;;;4983840;28;90802;-82
2023/07/01 02:47:37;;;;;;;84.57;53.15;;;19.80;75.70;;;;;;4973872;28;90171;-82
2023/07/01 02:50:04;;;;;;;83.60;53.13;;;19.70;75.90;;;;;;4986510;28;90758;-82
2023/07/01 02:52:29;;;;;;;83.28;53.13;;;19.70;75.70;;;;;;4982788;28;92066;-82
2023/07/01 02:54:55;;;;;;;83.60;53.15;;;19.70;76.40;;;;;;4961183;28;93055;-82
2023/07/01 02:57:21;;;;;;;83.35;53.00;;;19.70;76.60;;;;;;4984458;28;90492;-82
2023/07/01 02:59:48;;;;;;;82.80;52.80;;;19.70;76.20;;;;;;4990658;28;88844;-83
2023/07/01 03:02:13;;;;;;;83.50;52.92;;;19.70;76.70;;;;;;4986693;28;90305;-83
2023/07/01 03:04:39;;;;;;;83.43;53.08;;;19.70;76.10;;;;;;4967438;28;93451;-82
2023/07/01 03:07:04;;;;;;;83.63;53.05;;;19.70;77.90;;;;;;4985731;28;90904;-82
2023/07/01 03:09:30;;;;;;;84.20;52.83;;;19.70;77.00;;;;;;4983113;28;90677;-82
2023/07/01 03:11:56;;;;;;;82.53;52.72;;;19.70;76.00;;;;;;4960139;28;94743;-81
2023/07/01 03:14:21;;;;;;;83.07;52.83;;;19.70;76.60;;;;;;4962366;28;93548;-82
2023/07/01 03:16:49;;;;;;;83.63;53.03;;;19.70;77.40;;;;;;4974431;28;89495;-82
2023/07/01 03:19:15;;;;;;;84.07;52.75;;;19.70;77.40;;;;;;4984831;28;89848;-83
2023/07/01 03:21:41;;;;;;;83.32;52.72;;;19.60;76.20;;;;;;4978044;28;89776;-82
2023/07/01 03:24:07;;;;;;;83.57;53.20;;;19.60;77.10;;;;;;4963608;28;92726;-82
2023/07/01 03:26:32;;;;;;;82.60;53.03;;;19.60;77.20;;;;;;4981548;28;90395;-81
2023/07/01 03:28:58;;;;;;;82.70;52.95;;;19.60;77.40;;;;;;4965168;28;89964;-82
2023/07/01 03:31:24;;;;;;;82.30;52.78;;;19.60;76.70;;;;;;4983234;28;91349;-83
2023/07/01 03:33:50;;;;;;;84.65;53.05;;;19.60;76.90;;;;;;4968457;28;94642;-82
2023/07/01 03:36:16;;;;;;;82.75;52.95;;;19.60;77.80;;;;;;4985694;28;89801;-82
2023/07/01 03:38:42;;;;;;;82.88;52.95;;;19.60;76.60;;;;;;4963796;28;89367;-81
2023/07/01 03:41:07;;;;;;;83.00;53.08;;;19.60;76.40;;;;;;4978901;28;91503;-82
2023/07/01 03:43:34;;;;;;;82.80;52.90;;;19.60;77.90;;;;;;4968403;28;94096;-82
2023/07/01 03:46:00;;;;;;;82.97;53.08;;;19.60;78.50;;;;;;4982457;28;94035;-82
2023/07/01 03:48:25;;;;;;;82.97;52.85;;;19.60;76.80;;;;;;4965665;28;88583;-82
2023/07/01 03:50:51;;;;;;;83.90;52.95;;;19.50;77.80;;;;;;4983157;28;89861;-81
2023/07/01 03:53:17;;;;;;;83.78;52.75;;;19.50;77.30;;;;;;4987825;28;89985;-83
2023/07/01 03:55:42;;;;;;;82.78;52.92;;;19.50;77.80;;;;;;4977636;28;91629;-82
2023/07/01 03:58:08;;;;;;;82.38;52.58;;;19.50;77.70;;;;;;4973645;28;90301;-83
2023/07/01 04:00:33;;;;;;;82.65;52.78;;;19.50;76.70;;;;;;4987549;28;90630;-82
2023/07/01 04:03:05;;;;;;;82.47;53.00;;;19.50;76.30;;;;;;4983954;28;89872;-82
2023/07/01 04:05:34;;;;;;;82.65;52.83;;;19.50;77.40;;;;;;4977237;28;89612;-82
2023/07/01 04:08:00;;;;;;;82.40;52.60;;;19.50;78.20;;;;;;4983374;28;89427;-82
2023/07/01 04:10:26;;;;;;;82.03;52.72;;;19.50;76.40;;;;;;4969152;28;92747;-82
2023/07/01 04:12:52;;;;;;;83.18;52.78;;;19.50;76.60;;;;;;4984460;28;89522;-82
2023/07/01 04:15:18;;;;;;;82.85;52.40;;;19.50;77.70;;;;;;4979186;28;89555;-82
2023/07/01 04:17:50;;;;;;;82.68;52.72;;;19.50;76.50;;;;;;4981158;28;89779;-83
2023/07/01 04:20:19;;;;;;;82.75;52.72;;;19.50;77.50;;;;;;4984237;28;90923;-82
2023/07/01 04:22:45;;;;;;;83.13;52.65;;;19.50;77.60;;;;;;4966971;28;94352;-82
2023/07/01 04:25:11;;;;;;;81.97;52.42;;;19.50;77.50;;;;;;4982453;28;90375;-82
2023/07/01 04:27:36;;;;;;;82.10;52.70;;;19.50;78.50;;;;;;4986147;28;89805;-82
2023/07/01 04:30:03;;;;;;;82.97;52.72;;;19.50;77.20;;;;;;4969296;28;93239;-82
2023/07/01 04:32:28;;;;;;;83.53;52.92;;;19.40;78.20;;;;;;4981553;28;91181;-82
2023/07/01 04:34:55;;;;;;;82.35;52.58;;;19.50;78.40;;;;;;4981032;28;90491;-82
2023/07/01 04:37:21;;;;;;;82.80;52.78;;;19.40;78.10;;;;;;4972043;28;89813;-81
2023/07/01 04:39:47;;;;;;;83.90;52.72;;;19.50;77.40;;;;;;4983818;28;90722;-81
2023/07/01 04:42:13;;;;;;;83.05;52.60;;;19.50;78.20;;;;;;4982319;28;89959;-81
2023/07/01 04:44:38;;;;;;;82.95;52.83;;;19.50;76.60;;;;;;4969679;28;90537;-82
2023/07/01 04:47:04;;;;;;;82.03;52.67;;;19.50;78.50;;;;;;4978495;28;93572;-79
2023/07/01 04:49:29;;;;;;;83.07;52.65;;;19.50;76.60;;;;;;4984559;28;90252;-82
2023/07/01 04:51:56;;;;;;;82.32;52.63;;;19.50;78.40;;;;;;4964853;28;92813;-81
2023/07/01 04:54:21;;;;;;;81.93;52.25;;;19.40;77.60;;;;;;4960786;28;90331;-82
2023/07/01 04:56:47;;;;;;;82.38;52.78;;;19.50;76.80;;;;;;4990403;28;89948;-83
2023/07/01 04:59:12;;;;;;;82.25;52.70;;;19.50;79.10;;;;;;4985954;28;91714;-82
2023/07/01 05:01:38;;;;;;;83.03;53.00;;;19.50;77.30;;;;;;4989142;28;89728;-82
2023/07/01 05:04:04;;;;;;;82.03;52.63;;;19.50;77.80;;;;;;4969880;28;90406;-83
2023/07/01 05:06:31;;;;;;;81.78;52.25;;;19.50;77.00;;;;;;4974156;28;88842;-83
2023/07/01 05:08:56;;;;;;;82.15;52.50;;;19.40;77.10;;;;;;4986052;28;91158;-83
2023/07/01 05:11:22;;;;;;;81.90;52.47;;;19.50;77.80;;;;;;4975668;28;93802;-82
2023/07/01 05:13:47;;;;;;;82.07;52.67;;;19.50;76.50;;;;;;4970111;28;88804;-82
2023/07/01 05:16:13;;;;;;;82.82;52.63;;;19.50;76.40;;;;;;4983078;28;89482;-82
2023/07/01 05:18:38;;;;;;;83.20;53.05;;;19.40;77.80;;;;;;4982477;28;91010;-82
2023/07/01 05:21:04;;;;;;;82.65;52.70;;;19.50;77.00;;;;;;4985023;28;89549;-82
2023/07/01 05:23:29;;;;;;;81.97;52.53;;;19.50;77.50;;;;;;4968708;28;89688;-82
2023/07/01 05:25:55;;;;;;;82.38;52.63;;;19.50;77.90;;;;;;4971498;28;88917;-82
2023/07/01 05:28:21;;;;;;;83.95;52.83;;;19.50;76.90;;;;;;4986853;28;90742;-81
2023/07/01 05:30:46;;;;;;;81.88;52.45;;;19.50;78.00;;;;;;4965894;28;92222;-82
2023/07/01 05:33:12;;;;;;;82.50;52.85;;;19.50;77.00;;;;;;4979501;28;91165;-82
2023/07/01 05:35:38;;;;;;;82.57;52.78;;;19.50;78.50;;;;;;4986468;28;93673;-82
2023/07/01 05:38:11;;;;;;;81.88;52.63;;;19.50;78.00;;;;;;4983910;28;91448;-81
2023/07/01 05:40:37;;;;;;;81.82;52.47;;;19.50;79.00;;;;;;4981539;28;90694;-82
2023/07/01 05:43:03;;;;;;;81.95;52.40;;;19.60;77.80;;;;;;4967419;28;89971;-82
2023/07/01 05:45:29;;;;;;;82.15;52.53;;;19.60;77.00;;;;;;4984938;28;89598;-83
2023/07/01 05:47:55;;;;;;;82.38;52.58;;;19.50;77.60;;;;;;4966159;28;93400;-82
2023/07/01 05:50:20;;;;;;;82.15;52.50;;;19.60;76.50;;;;;;4965658;28;92651;-81
2023/07/01 05:52:46;;;;;;;82.35;52.53;;;19.60;77.70;;;;;;4983513;28;89902;-82
2023/07/01 05:55:11;;;;;;;83.10;52.38;;;19.60;76.70;;;;;;4980683;28;93498;-83
2023/07/01 05:57:37;;;;;;;82.10;52.45;;;19.60;77.00;;;;;;4981260;28;93064;-82
2023/07/01 06:00:04;;;;;;;82.45;52.38;;;19.70;76.30;;;;;;4977930;28;92947;-82
2023/07/01 06:02:30;;;;;;;82.07;52.53;;;19.70;76.90;;;;;;4982131;28;90043;-82
2023/07/01 06:04:56;;;;;;;82.38;52.63;;;19.70;76.80;;;;;;4962452;28;89475;-82
2023/07/01 06:07:22;;;;;;;82.22;52.55;;;19.70;76.90;;;;;;4980597;28;90513;-82
2023/07/01 06:09:48;;;;;;;82.22;52.45;;;19.70;76.30;;;;;;4968100;28;92847;-82
2023/07/01 06:12:13;;;;;;;82.63;52.65;;;19.80;76.10;;;;;;4969741;28;89432;-82
2023/07/01 06:14:39;;;;;;;82.60;52.78;;;19.70;76.10;;;;;;4965749;28;90784;-82
2023/07/01 06:17:06;;;;;;;82.60;52.60;;;19.80;76.40;;;;;;4981801;28;90477;-82
2023/07/01 06:19:31;;;;;;;82.72;52.50;;;19.80;76.20;;;;;;4957214;28;93460;-82
2023/07/01 06:21:57;;;;;;;82.38;52.40;;;19.80;76.40;;;;;;4975385;28;90516;-82
2023/07/01 06:24:22;;;;;;;82.53;52.70;;;19.80;76.10;;;;;;4958471;28;89379;-83
2023/07/01 06:26:48;;;;;;;82.22;52.58;;;19.80;77.20;;;;;;4968249;28;93859;-84
2023/07/01 06:29:14;;;;;;;82.20;52.55;;;19.80;78.00;;;;;;4980355;28;92181;-82
2023/07/01 06:31:39;;;;;;;82.60;52.45;;;19.80;75.90;;;;;;4967586;28;90190;-83
2023/07/01 06:34:12;;;;;;;82.57;52.63;;;19.80;77.30;;;;;;4983636;28;89616;-82
2023/07/01 06:36:37;;;;;;;82.28;52.38;;;19.80;75.60;;;;;;4987440;28;90139;-81
2023/07/01 06:39:04;;;;;;;82.30;52.45;;;19.80;76.60;;;;;;4973850;28;93691;-81
2023/07/01 06:41:29;;;;;;;82.53;52.63;;;19.80;76.10;;;;;;4982993;28;90006;-81
2023/07/01 06:43:55;;;;;;;82.45;52.53;;;19.80;77.20;;;;;;4985625;28;89691;-83
2023/07/01 06:46:21;;;;;;;82.45;52.67;;;19.80;75.60;;;;;;4965897;28;94107;-80
2023/07/01 06:48:46;;;;;;;83.07;52.83;;;19.90;76.30;;;;;;4983845;28;92494;-82
2023/07/01 06:51:13;;;;;;;82.43;52.55;;;19.90;76.10;;;;;;4961785;28;89798;-82
2023/07/01 06:53:39;;;;;;;82.65;52.53;;;19.80;75.60;;;;;;4982932;28;89473;-81
2023/07/01 06:56:05;;;;;;;82.60;52.50;;;19.80;75.90;;;;;;4984552;28;93065;-81
2023/07/01 06:58:31;;;;;;;82.75;52.97;;;19.90;75.60;;;;;;4966957;28;92809;-81
2023/07/01 07:00:56;;;;;;;82.38;52.75;;;19.90;77.30;;;;;;4983288;28;91875;-81
2023/07/01 07:03:22;;;;;;;82.70;52.70;;;19.90;76.20;;;;;;4985262;28;88956;-80
2023/07/01 07:05:47;;;;;;;82.47;52.60;;;19.90;75.80;;;;;;4966177;28;92471;-81
2023/07/01 07:08:13;;;;;;;82.43;52.58;;;19.90;75.50;;;;;;4981495;28;91641;-81
2023/07/01 07:10:38;;;;;;;82.95;52.92;;;20.00;76.00;;;;;;4981609;28;91422;-84
2023/07/01 07:13:04;;;;;;;82.03;52.40;;;20.00;75.90;;;;;;4968152;28;90177;-81
2023/07/01 07:15:30;;;;;;;82.97;52.80;;;20.00;75.40;;;;;;4964280;28;93920;-85
2023/07/01 07:17:56;;;;;;;85.43;52.83;;;20.00;76.60;;;;;;4979756;28;90481;-83
2023/07/01 07:20:22;;;;;;;84.15;53.13;;;20.00;75.90;;;;;;4986702;28;89468;-81
2023/07/01 07:22:47;;;;;;;83.20;53.05;;;20.00;74.90;;;;;;4989452;28;89855;-82
2023/07/01 07:25:17;;;;;;;83.45;52.83;;;20.10;75.20;;;;;;4965228;28;93028;-82
2023/07/01 07:27:43;;;;;;;83.50;53.08;;;20.10;75.60;;;;;;4985829;28;90500;-83
2023/07/01 07:30:13;;;;;;;84.30;53.22;;;20.10;76.50;;;;;;4967946;28;90800;-82
2023/07/01 07:32:39;;;;;;;85.07;53.13;;;20.10;75.20;;;;;;4987454;28;89632;-81
2023/07/01 07:35:05;;;;;;;84.05;53.15;;;20.20;74.80;;;;;;4972782;28;95259;-82
2023/07/01 07:37:31;;;;;;;83.70;53.00;;;20.20;74.90;;;;;;4986789;28;93035;-82
2023/07/01 07:39:59;;;;;;;83.95;53.03;;;20.30;74.30;;;;;;4984532;28;89487;-81
2023/07/01 07:42:25;;;;;;;83.90;52.88;;;20.30;75.20;;;;;;4985014;28;89540;-81
2023/07/01 07:44:51;;;;;;;83.53;52.90;;;20.30;75.70;;;;;;4964994;28;92327;-82
2023/07/01 07:47:16;;;;;;;84.78;53.25;;;20.30;75.80;;;;;;4985274;28;89837;-82
2023/07/01 07:49:42;;;;;;;85.28;53.25;;;20.40;75.30;;;;;;4966876;28;89839;-81
2023/07/01 07:52:07;;;;;;;84.50;53.03;;;20.40;76.10;;;;;;4980568;28;90282;-81
2023/07/01 07:54:33;;;;;;;84.30;53.20;;;20.50;74.60;;;;;;4982476;28;90791;-81
2023/07/01 07:56:59;;;;;;;85.35;53.33;;;20.60;74.30;;;;;;4986950;28;90417;-82
2023/07/01 07:59:28;;;;;;;85.97;53.05;;;20.60;74.00;;;;;;4983652;28;90556;-82
2023/07/01 08:01:57;;;;;;;84.25;52.85;;;20.60;74.10;;;;;;4963094;28;90247;-82
2023/07/01 08:04:23;;;;;;;84.28;52.85;;;20.60;72.80;;;;;;4985811;28;90395;-81
2023/07/01 08:06:48;;;;;;;84.57;53.22;;;20.70;73.10;;;;;;4981884;28;93066;-81
2023/07/01 08:09:14;;;;;;;84.80;53.40;;;20.80;73.30;;;;;;4988791;28;89999;-82
2023/07/01 08:11:40;;;;;;;85.13;53.30;;;20.90;72.20;;;;;;4963876;28;89504;-82
2023/07/01 08:14:05;;;;;;;85.35;53.60;;;20.90;72.80;;;;;;4984645;28;92739;-81
2023/07/01 08:16:32;;;;;;;86.03;53.63;;;21.00;73.00;;;;;;4984337;28;89788;-81
2023/07/01 08:18:57;;;;;;;86.22;53.55;;;21.10;72.90;;;;;;4983556;28;89984;-82
2023/07/01 08:21:23;;;;;;;85.63;53.70;;;21.10;71.80;;;;;;4978995;28;89586;-83
2023/07/01 08:23:49;;;;;;;85.82;53.65;;;21.20;71.40;;;;;;4984602;28;93064;-81
2023/07/01 08:26:14;;;;;;;85.70;53.75;;;21.30;71.90;;;;;;4982271;28;90336;-81
2023/07/01 08:28:40;;;;;;;85.68;53.45;;;21.30;72.20;;;;;;4961591;28;90218;-84
2023/07/01 08:31:06;;;;;;;85.95;53.65;;;21.30;72.80;;;;;;4967586;28;89855;-81
2023/07/01 08:33:33;;;;;;;86.60;53.50;;;21.40;72.50;;;;;;4961248;28;94028;-81
2023/07/01 08:35:58;;;;;;;85.53;53.67;;;21.50;72.00;;;;;;4964483;28;94710;-80
2023/07/01 08:38:25;;;;;;;85.68;53.38;;;21.50;70.90;;;;;;4968031;28;89712;-81
2023/07/01 08:40:52;;;;;;;85.68;53.72;;;21.50;71.10;;;;;;4971041;28;88816;-82
2023/07/01 08:43:23;;;;;;;85.72;53.65;;;21.50;71.60;;;;;;4983858;28;91000;-81
2023/07/01 08:45:52;;;;;;;85.50;53.57;;;21.50;71.40;;;;;;4977823;28;90173;-81
2023/07/01 08:48:21;;;;;;;87.65;53.92;;;21.50;70.90;;;;;;4968450;28;91537;-81
2023/07/01 08:50:56;;;;;;;86.78;54.15;;;21.50;70.10;;;;;;4966502;28;90186;-82
2023/07/01 08:53:21;;;;;;;87.93;53.80;;;21.60;71.00;;;;;;4968667;28;93572;-81
2023/07/01 08:55:48;;;;;;;87.25;53.92;;;21.70;70.70;;;;;;4974019;28;91202;-81
2023/07/01 08:58:14;;;;;;;86.75;54.13;;;21.70;69.60;;;;;;4978323;28;89598;-81
2023/07/01 09:00:42;;;;;;;87.07;53.88;;;21.80;70.70;;;;;;4985613;28;90765;-81
2023/07/01 09:03:08;;;;;;;90.63;54.17;;;21.80;70.00;;;;;;4982855;28;90484;-81
2023/07/01 09:05:34;;;;;;;87.68;54.35;;;21.80;69.90;;;;;;4966082;28;92960;-82
2023/07/01 09:08:00;;;;;;;87.95;54.08;;;21.80;70.20;;;;;;4981200;28;90328;-80
2023/07/01 09:10:26;;;;;;;87.43;54.35;;;21.80;70.50;;;;;;4969220;28;89510;-80
2023/07/01 09:12:52;;;;;;;87.60;54.28;;;21.90;70.90;;;;;;4985021;28;90686;-81
2023/07/01 09:15:17;;;;;;;87.35;54.45;;;22.10;69.90;;;;;;4962266;28;93452;-83
2023/07/01 09:17:43;;;;;;;89.15;54.25;;;22.10;69.00;;;;;;4964311;28;91428;-81
2023/07/01 09:20:11;;;;;;;87.80;54.53;;;22.10;69.30;;;;;;4984165;28;90314;-81
2023/07/01 09:22:45;;;;;;;87.88;54.58;;;22.20;69.10;;;;;;4980548;28;89866;-80
2023/07/01 09:25:28;;;;;;;88.97;54.30;;;22.20;69.30;;;;;;4986621;28;92961;-81
2023/07/01 09:27:54;;;;;;;88.43;54.33;;;22.20;69.30;;;;;;4977463;28;89399;-80
2023/07/01 09:30:27;;;;;;;88.35;54.45;;;22.30;68.90;;;;;;4960568;28;88556;-82
2023/07/01 09:33:13;;;;;;;88.65;54.45;;;22.40;68.50;;;;;;4979618;28;93533;-80
2023/07/01 09:35:43;;;;;;;86.78;54.30;;;22.40;67.90;;;;;;4960817;28;92537;-81
2023/07/01 09:38:09;;;;;;;88.45;54.55;;;22.50;68.10;;;;;;4987964;28;91005;-80
2023/07/01 09:40:35;;;;;;;88.07;54.50;;;22.50;68.10;;;;;;4980933;28;89793;-80
2023/07/01 09:43:01;;;;;;;89.00;54.38;;;22.50;68.10;;;;;;4963857;28;92484;-80
2023/07/01 09:45:26;;;;;;;87.35;54.33;;;22.60;68.40;;;;;;4959600;28;92529;-82
2023/07/01 09:47:52;;;;;;;88.20;54.55;;;22.60;68.30;;;;;;4982608;28;91339;-81
2023/07/01 09:50:28;;;;;;;89.05;54.47;;;22.70;67.60;;;;;;4959989;28;91002;-81
2023/07/01 09:52:55;;;;;;;87.80;54.58;;;22.70;67.80;;;;;;4965504;28;93380;-81
2023/07/01 09:55:21;;;;;;;88.30;54.47;;;22.70;67.50;;;;;;4983878;28;91668;-80
2023/07/01 09:57:47;;;;;;;88.38;54.42;;;22.80;67.80;;;;;;4964337;28;89869;-80
2023/07/01 10:00:15;;;;;;;87.95;54.25;;;22.80;67.50;;;;;;4983488;28;90667;-80
2023/07/01 10:02:43;;;;;;;87.30;54.33;;;22.90;67.90;;;;;;4982117;28;94554;-81
2023/07/01 10:05:09;;;;;;;87.90;54.30;;;22.90;68.70;;;;;;4982200;28;91706;-81
2023/07/01 10:07:35;;;;;;;86.80;53.97;;;22.80;67.70;;;;;;4988368;28;89533;-81
2023/07/01 10:10:01;;;;;;;88.20;54.03;;;22.80;68.10;;;;;;4994565;28;89988;-80
2023/07/01 10:12:27;;;;;;;87.13;54.35;;;22.80;68.30;;;;;;4968328;28;94003;-80
2023/07/01 10:14:54;;;;;;;86.50;53.95;;;22.70;68.40;;;;;;4986176;28;92527;-81
2023/07/01 10:17:20;;;;;;;88.22;54.55;;;22.70;68.80;;;;;;4964883;28;92136;-86
2023/07/01 10:19:48;;;;;;;88.18;54.15;;;22.80;69.10;;;;;;4969160;28;89551;-83
2023/07/01 10:22:29;;;;;;;88.75;54.40;;;22.80;68.60;;;;;;4985573;28;89905;-83
2023/07/01 10:25:07;;;;;;;88.10;54.30;;;22.80;68.90;;;;;;4969324;28;93229;-84
2023/07/01 10:27:42;;;;;;;89.60;54.33;;;22.90;68.40;;;;;;4988479;28;90484;-82
2023/07/01 10:30:14;;;;;;;87.38;54.15;;;22.90;68.80;;;;;;4976629;28;94515;-82
2023/07/01 10:32:40;;;;;;;86.38;54.03;;;22.90;69.00;;;;;;4964757;28;91390;-81
2023/07/01 10:35:07;;;;;;;86.18;53.70;;;22.80;69.50;;;;;;4967828;28;94050;-81
2023/07/01 10:37:34;;;;;;;86.47;54.03;;;22.70;69.60;;;;;;4970771;28;91460;-79
2023/07/01 10:40:07;;;;;;;89.35;54.33;;;22.70;69.70;;;;;;4984117;28;90800;-82
2023/07/01 10:42:36;;;;;;;88.63;54.20;;;22.70;70.20;;;;;;4984165;28;90999;-83
2023/07/01 10:45:11;;;;;;;90.68;54.35;;;22.80;71.10;;;;;;4982582;28;92558;-83
2023/07/01 10:47:37;;;;;;;90.78;54.22;;;22.70;71.40;;;;;;4969650;28;90637;-82
2023/07/01 10:50:08;;;;;;;88.22;54.22;;;22.80;71.50;;;;;;4985371;28;89794;-83
2023/07/01 10:52:56;;;;;;;88.32;54.20;;;22.90;71.20;;;;;;4981786;28;91591;-83
2023/07/01 10:55:40;;;;;;;87.95;54.38;;;22.90;70.90;;;;;;4980132;28;93891;-83
2023/07/01 10:58:26;;;;;;;89.93;54.75;;;23.00;70.60;;;;;;4975239;28;90098;-84
2023/07/01 11:00:52;;;;;;;92.35;54.85;;;23.10;70.70;;;;;;4986674;28;89041;-86
2023/07/01 11:03:36;;;;;;;88.60;54.70;;;23.10;70.60;;;;;;4967135;28;92747;-84
2023/07/01 11:06:03;;;;;;;88.13;54.72;;;23.10;71.00;;;;;;4983124;28;90073;-85
2023/07/01 11:08:31;;;;;;;88.60;54.22;;;23.00;71.20;;;;;;4968059;28;89486;-89
2023/07/01 11:10:57;;;;;;;87.38;54.42;;;23.00;70.50;;;;;;4953865;28;88560;-88
2023/07/01 11:13:23;;;;;;;87.47;53.97;;;22.80;70.30;;;;;;4967592;28;92811;-87
2023/07/01 11:16:11;;;;;;;86.55;53.78;;;22.60;69.50;;;;;;4971063;28;89620;-88
2023/07/01 11:18:47;;;;;;;86.50;54.03;;;22.50;70.10;;;;;;4982842;28;90358;-88
2023/07/01 11:21:17;;;;;;;87.18;54.28;;;22.50;70.10;;;;;;4972244;28;89316;-87
2023/07/01 11:23:54;;;;;;;86.00;53.97;;;22.60;70.40;;;;;;4986972;28;92733;-89
2023/07/01 11:26:34;;;;;;;86.22;54.22;;;22.60;71.40;;;;;;4997839;28;91746;-88
2023/07/01 11:29:00;;;;;;;87.47;54.50;;;22.70;71.20;;;;;;4994046;28;89534;-88
2023/07/01 11:31:31;;;;;;;87.40;54.58;;;22.70;71.80;;;;;;4977010;28;89227;-87
2023/07/01 11:33:58;;;;;;;86.40;54.38;;;22.70;71.60;;;;;;4972161;28;92483;-86
2023/07/01 11:36:40;;;;;;;86.50;54.22;;;22.70;71.70;;;;;;4963720;28;92476;-85
2023/07/01 11:39:10;;;;;;;87.38;54.60;;;22.80;71.90;;;;;;4969623;28;89839;-87
2023/07/01 11:41:38;;;;;;;87.38;54.70;;;22.80;71.30;;;;;;4980426;28;89124;-86
2023/07/01 11:44:07;;;;;;;87.00;54.28;;;22.80;71.60;;;;;;4982484;28;91767;-86
2023/07/01 11:46:36;;;;;;;88.80;54.65;;;22.70;71.80;;;;;;4970924;28;95698;-86
2023/07/01 11:49:21;;;;;;;86.90;54.45;;;22.60;71.90;;;;;;4988159;28;90066;-86
2023/07/01 11:51:49;;;;;;;85.85;54.20;;;22.60;72.80;;;;;;4983614;28;90292;-85
2023/07/01 11:54:16;;;;;;;87.72;54.40;;;22.50;72.60;;;;;;4964234;28;92840;-86
2023/07/01 11:56:44;;;;;;;89.53;54.33;;;22.50;72.00;;;;;;4961544;28;93364;-86
2023/07/01 11:59:10;;;;;;;87.72;53.88;;;22.40;70.00;;;;;;4986656;28;90536;-87
2023/07/01 12:01:40;;;;;;;88.78;54.60;;;22.30;70.90;;;;;;4966927;28;89291;-88
2023/07/01 12:04:16;;;;;;;88.70;54.65;;;22.40;69.70;;;;;;4989418;28;90377;-89
2023/07/01 12:06:42;;;;;;;93.28;55.25;;;22.40;69.90;;;;;;4993113;28;91011;-89
2023/07/01 12:09:08;;;;;;;93.95;55.38;;;22.30;70.00;;;;;;4984077;28;90066;-88
2023/07/01 12:11:47;;;;;;;92.45;55.45;;;22.40;70.60;;;;;;4970882;28;89962;-89
2023/07/01 12:14:19;;;;;;;89.07;54.95;;;22.40;71.10;;;;;;4966856;28;93174;-89
2023/07/01 12:16:49;;;;;;;89.22;55.15;;;22.40;70.80;;;;;;4967432;28;92188;-89
2023/07/01 12:19:20;;;;;;;91.13;55.17;;;22.50;71.00;;;;;;4969723;28;89245;-89
2023/07/01 12:21:47;;;;;;;88.72;55.17;;;22.60;70.10;;;;;;4969835;28;89822;-89
2023/07/01 12:24:20;;;;;;;91.55;55.33;;;22.70;68.70;;;;;;4963794;28;92700;-90
2023/07/01 12:26:52;;;;;;;89.88;55.10;;;22.70;68.60;;;;;;4967529;28;92565;-89
2023/07/01 12:29:21;;;;;;;89.07;54.78;;;22.70;69.20;;;;;;4965402;28;89591;-90
2023/07/01 12:31:47;;;;;;;89.78;55.22;;;22.70;68.70;;;;;;4970956;28;90339;-88